sensor_id;sensor_type;location;lat;lon;timestamp;pressure;altitude;pressure_sealevel;temperature;humidity
24762;BME280;12865;51.934;10.330;2023-02-03T00:00:34;99584.56;;;5.05;100.00
24762;BME280;12865;51.934;10.330;2023-02-03T00:03:20;99575.63;;;5.07;100.00
24762;BME280;12865;51.934;10.330;2023-02-03T00:06:06;99574.13;;;5.03;100.00
24762;BME280;12865;51.934;10.330;2023-02-03T00:08:54;99573.06;;;5.06;100.00
24762;BME280;12865;51.934;10.330;2023-02-03T00:11:41;99565.41;;;5.16;100.00
24762;BME280;12865;51.934;10.330;2023-02-03T00:14:27;99558.53;;;5.13;100.00
24762;BME280;12865;51.934;10.330;2023-02-03T00:17:12;99560.19;;;5.28;100.00
24762;BME280;12865;51.934;10.330;2023-02-03T00:19:59;99541.53;;;5.17;100.00
24762;BME280;12865;51.934;10.330;2023-02-03T00:22:45;99535.66;;;5.26;100.00
24762;BME280;12865;51.934;10.330;2023-02-03T00:25:31;99536.00;;;5.34;100.00
24762;BME280;12865;51.934;10.330;2023-02-03T00:28:17;99553.38;;;5.38;100.00
24762;BME280;12865;51.934;10.330;2023-02-03T00:31:02;99557.44;;;5.44;100.00
24762;BME280;12865;51.934;10.330;2023-02-03T00:33:56;99548.16;;;5.51;100.00
24762;BME280;12865;51.934;10.330;2023-02-03T00:36:42;99536.31;;;5.57;100.00
24762;BME280;12865;51.934;10.330;2023-02-03T00:39:27;99553.69;;;5.61;100.00
24762;BME280;12865;51.934;10.330;2023-02-03T00:42:13;99551.69;;;5.64;100.00
24762;BME280;12865;51.934;10.330;2023-02-03T00:44:59;99549.34;;;5.60;100.00
24762;BME280;12865;51.934;10.330;2023-02-03T00:47:44;99551.81;;;5.75;100.00
24762;BME280;12865;51.934;10.330;2023-02-03T00:50:30;99545.53;;;5.64;100.00
24762;BME280;12865;51.934;10.330;2023-02-03T00:53:16;99544.19;;;5.71;100.00
24762;BME280;12865;51.934;10.330;2023-02-03T00:56:02;99537.19;;;5.70;100.00
24762;BME280;12865;51.934;10.330;2023-02-03T00:58:47;99531.63;;;5.74;100.00
24762;BME280;12865;51.934;10.330;2023-02-03T01:01:33;99536.56;;;5.66;100.00
24762;BME280;12865;51.934;10.330;2023-02-03T01:04:19;99549.03;;;5.64;100.00
24762;BME280;12865;51.934;10.330;2023-02-03T01:07:05;99546.53;;;5.75;100.00
24762;BME280;12865;51.934;10.330;2023-02-03T01:09:51;99535.56;;;5.81;100.00
24762;BME280;12865;51.934;10.330;2023-02-03T01:12:36;99550.97;;;5.75;100.00
24762;BME280;12865;51.934;10.330;2023-02-03T01:15:22;99536.78;;;5.76;100.00
24762;BME280;12865;51.934;10.330;2023-02-03T01:18:08;99543.78;;;5.77;100.00
24762;BME280;12865;51.934;10.330;2023-02-03T01:20:53;99531.00;;;5.83;100.00
24762;BME280;12865;51.934;10.330;2023-02-03T01:23:39;99535.38;;;5.97;100.00
24762;BME280;12865;51.934;10.330;2023-02-03T01:26:25;99532.97;;;5.94;100.00
24762;BME280;12865;51.934;10.330;2023-02-03T01:29:10;99533.41;;;6.01;100.00
24762;BME280;12865;51.934;10.330;2023-02-03T01:31:56;99519.84;;;6.05;100.00
24762;BME280;12865;51.934;10.330;2023-02-03T01:34:42;99522.06;;;5.99;100.00
24762;BME280;12865;51.934;10.330;2023-02-03T01:37:28;99521.97;;;6.00;100.00
24762;BME280;12865;51.934;10.330;2023-02-03T01:40:13;99518.91;;;6.06;100.00
24762;BME280;12865;51.934;10.330;2023-02-03T01:42:59;99527.91;;;6.16;100.00
24762;BME280;12865;51.934;10.330;2023-02-03T01:45:45;99515.63;;;6.15;100.00
24762;BME280;12865;51.934;10.330;2023-02-03T01:48:31;99511.91;;;6.18;100.00
24762;BME280;12865;51.934;10.330;2023-02-03T01:51:19;99530.47;;;6.30;100.00
24762;BME280;12865;51.934;10.330;2023-02-03T01:54:10;99527.59;;;6.34;100.00
24762;BME280;12865;51.934;10.330;2023-02-03T01:57:02;99525.81;;;6.34;100.00
24762;BME280;12865;51.934;10.330;2023-02-03T01:59:50;99528.34;;;6.36;100.00
24762;BME280;12865;51.934;10.330;2023-02-03T02:02:37;99513.72;;;6.43;100.00
24762;BME280;12865;51.934;10.330;2023-02-03T02:05:47;99525.28;;;6.42;100.00
24762;BME280;12865;51.934;10.330;2023-02-03T02:08:35;99518.59;;;6.49;100.00
24762;BME280;12865;51.934;10.330;2023-02-03T02:11:21;99518.06;;;6.56;100.00
24762;BME280;12865;51.934;10.330;2023-02-03T02:14:07;99511.69;;;6.59;100.00
24762;BME280;12865;51.934;10.330;2023-02-03T02:23:24;99473.44;;;6.63;100.00
24762;BME280;12865;51.934;10.330;2023-02-03T02:35:48;99454.25;;;6.72;100.00
24762;BME280;12865;51.934;10.330;2023-02-03T02:38:58;99457.63;;;6.74;100.00
24762;BME280;12865;51.934;10.330;2023-02-03T02:42:07;99458.56;;;6.73;100.00
24762;BME280;12865;51.934;10.330;2023-02-03T02:45:38;99456.56;;;6.77;100.00
24762;BME280;12865;51.934;10.330;2023-02-03T02:51:13;99441.06;;;6.83;100.00
24762;BME280;12865;51.934;10.330;2023-02-03T02:54:04;99431.16;;;6.98;100.00
24762;BME280;12865;51.934;10.330;2023-02-03T02:56:54;99403.47;;;7.02;100.00
24762;BME280;12865;51.934;10.330;2023-02-03T02:59:40;99399.00;;;7.02;100.00
24762;BME280;12865;51.934;10.330;2023-02-03T03:02:34;99414.06;;;7.02;100.00
24762;BME280;12865;51.934;10.330;2023-02-03T03:05:20;99421.91;;;7.03;100.00
24762;BME280;12865;51.934;10.330;2023-02-03T03:08:07;99431.34;;;7.07;100.00
24762;BME280;12865;51.934;10.330;2023-02-03T03:10:55;99422.94;;;7.14;100.00
24762;BME280;12865;51.934;10.330;2023-02-03T03:13:49;99414.69;;;7.05;100.00
24762;BME280;12865;51.934;10.330;2023-02-03T03:16:37;99423.41;;;7.07;100.00
24762;BME280;12865;51.934;10.330;2023-02-03T03:19:27;99415.94;;;7.13;100.00
24762;BME280;12865;51.934;10.330;2023-02-03T03:22:16;99404.84;;;7.07;100.00
24762;BME280;12865;51.934;10.330;2023-02-03T03:25:11;99399.13;;;7.01;100.00
24762;BME280;12865;51.934;10.330;2023-02-03T03:28:02;99390.09;;;7.03;100.00
24762;BME280;12865;51.934;10.330;2023-02-03T03:30:50;99396.25;;;7.04;100.00
24762;BME280;12865;51.934;10.330;2023-02-03T03:33:35;99393.25;;;7.08;100.00
24762;BME280;12865;51.934;10.330;2023-02-03T03:36:26;99389.31;;;7.14;100.00
24762;BME280;12865;51.934;10.330;2023-02-03T03:39:21;99410.84;;;7.09;100.00
24762;BME280;12865;51.934;10.330;2023-02-03T03:45:21;99412.72;;;7.20;100.00
24762;BME280;12865;51.934;10.330;2023-02-03T03:48:13;99422.41;;;7.32;100.00
24762;BME280;12865;51.934;10.330;2023-02-03T03:51:08;99416.16;;;7.33;100.00
24762;BME280;12865;51.934;10.330;2023-02-03T03:54:02;99417.50;;;7.39;100.00
24762;BME280;12865;51.934;10.330;2023-02-03T03:57:08;99412.19;;;7.39;100.00
24762;BME280;12865;51.934;10.330;2023-02-03T04:00:02;99410.09;;;7.31;100.00
24762;BME280;12865;51.934;10.330;2023-02-03T04:02:51;99411.97;;;7.42;100.00
24762;BME280;12865;51.934;10.330;2023-02-03T04:05:39;99395.03;;;7.32;100.00
24762;BME280;12865;51.934;10.330;2023-02-03T04:08:25;99405.75;;;7.30;100.00
24762;BME280;12865;51.934;10.330;2023-02-03T04:11:10;99393.72;;;7.37;100.00
24762;BME280;12865;51.934;10.330;2023-02-03T04:14:16;99392.41;;;7.43;100.00
24762;BME280;12865;51.934;10.330;2023-02-03T04:17:01;99384.94;;;7.37;100.00
24762;BME280;12865;51.934;10.330;2023-02-03T04:19:47;99374.31;;;7.37;100.00
24762;BME280;12865;51.934;10.330;2023-02-03T04:22:33;99362.03;;;7.36;100.00
24762;BME280;12865;51.934;10.330;2023-02-03T04:25:19;99349.13;;;7.31;100.00
24762;BME280;12865;51.934;10.330;2023-02-03T04:28:05;99351.88;;;7.30;100.00
24762;BME280;12865;51.934;10.330;2023-02-03T04:30:51;99335.25;;;7.28;100.00
24762;BME280;12865;51.934;10.330;2023-02-03T04:33:36;99327.53;;;7.36;100.00
24762;BME280;12865;51.934;10.330;2023-02-03T04:36:22;99322.75;;;7.41;100.00
24762;BME280;12865;51.934;10.330;2023-02-03T04:39:08;99325.03;;;7.34;100.00
24762;BME280;12865;51.934;10.330;2023-02-03T04:41:53;99322.13;;;7.37;100.00
24762;BME280;12865;51.934;10.330;2023-02-03T04:44:39;99317.94;;;7.46;100.00
24762;BME280;12865;51.934;10.330;2023-02-03T04:47:24;99308.00;;;7.37;100.00
24762;BME280;12865;51.934;10.330;2023-02-03T04:50:10;99318.63;;;7.37;100.00
24762;BME280;12865;51.934;10.330;2023-02-03T04:52:56;99307.31;;;7.35;100.00
24762;BME280;12865;51.934;10.330;2023-02-03T04:55:47;99317.41;;;7.30;100.00
24762;BME280;12865;51.934;10.330;2023-02-03T04:58:35;99322.38;;;7.34;100.00
24762;BME280;12865;51.934;10.330;2023-02-03T05:01:21;99316.44;;;7.31;100.00
24762;BME280;12865;51.934;10.330;2023-02-03T05:04:06;99326.63;;;7.48;100.00
24762;BME280;12865;51.934;10.330;2023-02-03T05:06:52;99316.00;;;7.48;100.00
24762;BME280;12865;51.934;10.330;2023-02-03T05:09:38;99317.13;;;7.57;100.00
24762;BME280;12865;51.934;10.330;2023-02-03T05:12:23;99327.47;;;7.48;100.00
24762;BME280;12865;51.934;10.330;2023-02-03T05:15:09;99316.88;;;7.48;100.00
24762;BME280;12865;51.934;10.330;2023-02-03T05:17:55;99320.84;;;7.54;100.00
24762;BME280;12865;51.934;10.330;2023-02-03T05:20:41;99317.09;;;7.45;100.00
24762;BME280;12865;51.934;10.330;2023-02-03T05:23:26;99312.38;;;7.38;100.00
24762;BME280;12865;51.934;10.330;2023-02-03T05:26:12;99299.47;;;7.44;100.00
24762;BME280;12865;51.934;10.330;2023-02-03T05:28:58;99303.72;;;7.47;100.00
24762;BME280;12865;51.934;10.330;2023-02-03T05:31:43;99307.09;;;7.49;100.00
24762;BME280;12865;51.934;10.330;2023-02-03T05:34:29;99311.94;;;7.55;100.00
24762;BME280;12865;51.934;10.330;2023-02-03T05:37:15;99303.97;;;7.55;100.00
24762;BME280;12865;51.934;10.330;2023-02-03T05:40:00;99305.28;;;7.61;100.00
24762;BME280;12865;51.934;10.330;2023-02-03T05:43:05;99301.06;;;7.58;100.00
24762;BME280;12865;51.934;10.330;2023-02-03T05:45:50;99295.91;;;7.68;100.00
24762;BME280;12865;51.934;10.330;2023-02-03T05:48:36;99312.19;;;7.74;100.00
24762;BME280;12865;51.934;10.330;2023-02-03T05:51:22;99305.88;;;7.64;100.00
24762;BME280;12865;51.934;10.330;2023-02-03T05:54:08;99295.78;;;7.69;100.00
24762;BME280;12865;51.934;10.330;2023-02-03T05:56:54;99305.91;;;7.75;100.00
24762;BME280;12865;51.934;10.330;2023-02-03T05:59:40;99270.78;;;7.72;100.00
24762;BME280;12865;51.934;10.330;2023-02-03T06:02:25;99275.50;;;7.68;100.00
24762;BME280;12865;51.934;10.330;2023-02-03T06:05:11;99279.13;;;7.67;100.00
24762;BME280;12865;51.934;10.330;2023-02-03T06:07:57;99267.09;;;7.63;100.00
24762;BME280;12865;51.934;10.330;2023-02-03T06:10:43;99271.06;;;7.69;100.00
24762;BME280;12865;51.934;10.330;2023-02-03T06:13:29;99281.19;;;7.64;100.00
24762;BME280;12865;51.934;10.330;2023-02-03T06:16:15;99272.03;;;7.57;100.00
24762;BME280;12865;51.934;10.330;2023-02-03T06:19:01;99289.00;;;7.65;100.00
24762;BME280;12865;51.934;10.330;2023-02-03T06:21:47;99273.09;;;7.76;100.00
24762;BME280;12865;51.934;10.330;2023-02-03T06:24:32;99290.69;;;7.66;100.00
24762;BME280;12865;51.934;10.330;2023-02-03T06:27:18;99294.81;;;7.70;100.00
24762;BME280;12865;51.934;10.330;2023-02-03T06:30:04;99293.00;;;7.71;100.00
24762;BME280;12865;51.934;10.330;2023-02-03T06:32:50;99292.75;;;7.63;100.00
24762;BME280;12865;51.934;10.330;2023-02-03T06:35:35;99293.63;;;7.63;100.00
24762;BME280;12865;51.934;10.330;2023-02-03T06:38:21;99305.66;;;7.67;100.00
24762;BME280;12865;51.934;10.330;2023-02-03T06:41:07;99285.88;;;7.60;100.00
24762;BME280;12865;51.934;10.330;2023-02-03T06:43:52;99301.66;;;7.50;100.00
24762;BME280;12865;51.934;10.330;2023-02-03T06:46:38;99305.16;;;7.51;100.00
24762;BME280;12865;51.934;10.330;2023-02-03T06:49:24;99300.81;;;7.50;100.00
24762;BME280;12865;51.934;10.330;2023-02-03T06:52:10;99294.91;;;7.46;100.00
24762;BME280;12865;51.934;10.330;2023-02-03T06:54:55;99289.22;;;7.40;100.00
24762;BME280;12865;51.934;10.330;2023-02-03T06:57:42;99298.88;;;7.41;100.00
24762;BME280;12865;51.934;10.330;2023-02-03T07:00:31;99286.69;;;7.38;100.00
24762;BME280;12865;51.934;10.330;2023-02-03T07:03:17;99298.16;;;7.39;100.00
24762;BME280;12865;51.934;10.330;2023-02-03T07:06:03;99281.03;;;7.43;100.00
24762;BME280;12865;51.934;10.330;2023-02-03T07:08:48;99281.38;;;7.38;100.00
24762;BME280;12865;51.934;10.330;2023-02-03T07:11:34;99280.91;;;7.33;100.00
24762;BME280;12865;51.934;10.330;2023-02-03T07:14:20;99282.34;;;7.37;100.00
24762;BME280;12865;51.934;10.330;2023-02-03T07:17:05;99289.97;;;7.42;100.00
24762;BME280;12865;51.934;10.330;2023-02-03T07:19:51;99283.69;;;7.43;100.00
24762;BME280;12865;51.934;10.330;2023-02-03T07:22:37;99280.56;;;7.49;100.00
24762;BME280;12865;51.934;10.330;2023-02-03T07:25:25;99267.91;;;7.41;100.00
24762;BME280;12865;51.934;10.330;2023-02-03T07:28:11;99258.50;;;7.48;100.00
24762;BME280;12865;51.934;10.330;2023-02-03T07:30:56;99269.72;;;7.41;100.00
24762;BME280;12865;51.934;10.330;2023-02-03T07:33:42;99255.94;;;7.36;100.00
24762;BME280;12865;51.934;10.330;2023-02-03T07:36:28;99267.88;;;7.30;100.00
24762;BME280;12865;51.934;10.330;2023-02-03T07:39:14;99268.25;;;7.37;100.00
24762;BME280;12865;51.934;10.330;2023-02-03T07:42:00;99244.16;;;7.40;100.00
24762;BME280;12865;51.934;10.330;2023-02-03T07:44:45;99243.19;;;7.41;100.00
24762;BME280;12865;51.934;10.330;2023-02-03T07:47:31;99257.63;;;7.37;100.00
24762;BME280;12865;51.934;10.330;2023-02-03T07:50:17;99252.94;;;7.40;100.00
24762;BME280;12865;51.934;10.330;2023-02-03T07:53:03;99257.53;;;7.38;100.00
24762;BME280;12865;51.934;10.330;2023-02-03T07:55:49;99257.78;;;7.35;100.00
24762;BME280;12865;51.934;10.330;2023-02-03T07:58:34;99239.44;;;7.43;100.00
24762;BME280;12865;51.934;10.330;2023-02-03T08:01:21;99242.94;;;7.44;100.00
24762;BME280;12865;51.934;10.330;2023-02-03T08:04:07;99223.50;;;7.43;100.00
24762;BME280;12865;51.934;10.330;2023-02-03T08:06:53;99224.97;;;7.36;100.00
24762;BME280;12865;51.934;10.330;2023-02-03T08:09:38;99223.16;;;7.37;100.00
24762;BME280;12865;51.934;10.330;2023-02-03T08:12:24;99204.59;;;7.37;100.00
24762;BME280;12865;51.934;10.330;2023-02-03T08:15:10;99201.44;;;7.43;100.00
24762;BME280;12865;51.934;10.330;2023-02-03T08:17:55;99212.91;;;7.43;100.00
24762;BME280;12865;51.934;10.330;2023-02-03T08:23:09;99214.47;;;7.57;100.00
24762;BME280;12865;51.934;10.330;2023-02-03T08:25:54;99217.84;;;7.59;100.00
24762;BME280;12865;51.934;10.330;2023-02-03T08:28:40;99214.97;;;7.51;100.00
24762;BME280;12865;51.934;10.330;2023-02-03T08:31:26;99203.28;;;7.54;100.00
24762;BME280;12865;51.934;10.330;2023-02-03T08:34:11;99204.59;;;7.48;100.00
24762;BME280;12865;51.934;10.330;2023-02-03T08:36:57;99194.47;;;7.53;100.00
24762;BME280;12865;51.934;10.330;2023-02-03T08:39:43;99194.59;;;7.52;100.00
24762;BME280;12865;51.934;10.330;2023-02-03T08:42:28;99185.56;;;7.54;100.00
24762;BME280;12865;51.934;10.330;2023-02-03T08:45:14;99192.28;;;7.58;100.00
24762;BME280;12865;51.934;10.330;2023-02-03T08:48:00;99193.63;;;7.53;100.00
24762;BME280;12865;51.934;10.330;2023-02-03T08:50:45;99194.09;;;7.58;100.00
24762;BME280;12865;51.934;10.330;2023-02-03T08:53:37;99164.22;;;7.56;100.00
24762;BME280;12865;51.934;10.330;2023-02-03T08:56:23;99185.78;;;7.62;100.00
24762;BME280;12865;51.934;10.330;2023-02-03T08:59:11;99193.88;;;7.61;100.00
24762;BME280;12865;51.934;10.330;2023-02-03T09:01:57;99206.66;;;7.67;100.00
24762;BME280;12865;51.934;10.330;2023-02-03T09:04:46;99207.59;;;7.66;100.00
24762;BME280;12865;51.934;10.330;2023-02-03T09:07:33;99210.16;;;7.67;100.00
24762;BME280;12865;51.934;10.330;2023-02-03T09:10:19;99192.03;;;7.72;100.00
24762;BME280;12865;51.934;10.330;2023-02-03T09:16:46;99211.69;;;7.81;100.00
24762;BME280;12865;51.934;10.330;2023-02-03T09:19:32;99207.47;;;7.78;100.00
24762;BME280;12865;51.934;10.330;2023-02-03T09:22:17;99219.53;;;7.82;100.00
24762;BME280;12865;51.934;10.330;2023-02-03T09:25:04;99211.56;;;7.82;100.00
24762;BME280;12865;51.934;10.330;2023-02-03T09:27:50;99212.03;;;7.87;100.00
24762;BME280;12865;51.934;10.330;2023-02-03T09:30:36;99208.19;;;7.92;100.00
24762;BME280;12865;51.934;10.330;2023-02-03T09:33:21;99194.78;;;7.93;100.00
24762;BME280;12865;51.934;10.330;2023-02-03T09:36:07;99216.16;;;7.80;100.00
24762;BME280;12865;51.934;10.330;2023-02-03T09:38:53;99241.13;;;7.89;100.00
24762;BME280;12865;51.934;10.330;2023-02-03T09:47:40;99230.00;;;7.95;100.00
24762;BME280;12865;51.934;10.330;2023-02-03T09:50:29;99235.34;;;7.84;100.00
24762;BME280;12865;51.934;10.330;2023-02-03T09:53:38;99228.47;;;7.81;100.00
24762;BME280;12865;51.934;10.330;2023-02-03T09:56:32;99219.28;;;7.85;100.00
24762;BME280;12865;51.934;10.330;2023-02-03T09:59:19;99185.63;;;7.86;100.00
24762;BME280;12865;51.934;10.330;2023-02-03T10:02:28;99195.88;;;7.91;100.00
24762;BME280;12865;51.934;10.330;2023-02-03T10:08:06;99174.88;;;7.87;100.00
24762;BME280;12865;51.934;10.330;2023-02-03T10:11:06;99176.47;;;7.90;100.00
24762;BME280;12865;51.934;10.330;2023-02-03T10:20:10;99173.31;;;7.96;100.00
24762;BME280;12865;51.934;10.330;2023-02-03T10:23:01;99178.34;;;7.99;100.00
24762;BME280;12865;51.934;10.330;2023-02-03T10:25:54;99179.94;;;8.02;100.00
24762;BME280;12865;51.934;10.330;2023-02-03T10:28:49;99200.44;;;8.00;100.00
24762;BME280;12865;51.934;10.330;2023-02-03T10:31:36;99212.28;;;7.96;100.00
24762;BME280;12865;51.934;10.330;2023-02-03T10:34:23;99207.78;;;8.07;100.00
24762;BME280;12865;51.934;10.330;2023-02-03T10:37:32;99202.84;;;8.03;100.00
24762;BME280;12865;51.934;10.330;2023-02-03T10:40:23;99198.03;;;7.97;100.00
24762;BME280;12865;51.934;10.330;2023-02-03T10:43:10;99204.56;;;7.93;100.00
24762;BME280;12865;51.934;10.330;2023-02-03T10:46:19;99207.22;;;7.93;100.00
24762;BME280;12865;51.934;10.330;2023-02-03T10:49:05;99208.53;;;7.98;100.00
24762;BME280;12865;51.934;10.330;2023-02-03T10:51:53;99217.22;;;8.00;100.00
24762;BME280;12865;51.934;10.330;2023-02-03T10:54:41;99218.78;;;8.03;100.00
24762;BME280;12865;51.934;10.330;2023-02-03T10:57:27;99216.25;;;8.01;100.00
24762;BME280;12865;51.934;10.330;2023-02-03T11:03:34;99227.47;;;7.94;100.00
24762;BME280;12865;51.934;10.330;2023-02-03T11:06:20;99227.25;;;7.97;100.00
24762;BME280;12865;51.934;10.330;2023-02-03T11:09:22;99225.31;;;7.99;100.00
24762;BME280;12865;51.934;10.330;2023-02-03T11:12:15;99210.59;;;7.95;100.00
24762;BME280;12865;51.934;10.330;2023-02-03T11:15:04;99228.94;;;7.98;100.00
24762;BME280;12865;51.934;10.330;2023-02-03T11:17:50;99220.09;;;8.08;100.00
24762;BME280;12865;51.934;10.330;2023-02-03T11:20:36;99221.44;;;8.03;100.00
24762;BME280;12865;51.934;10.330;2023-02-03T11:23:21;99238.59;;;7.99;100.00
24762;BME280;12865;51.934;10.330;2023-02-03T11:26:14;99264.66;;;8.05;100.00
24762;BME280;12865;51.934;10.330;2023-02-03T11:29:04;99261.16;;;7.82;100.00
24762;BME280;12865;51.934;10.330;2023-02-03T11:31:54;99265.38;;;7.84;100.00
24762;BME280;12865;51.934;10.330;2023-02-03T11:34:45;99253.81;;;7.74;100.00
24762;BME280;12865;51.934;10.330;2023-02-03T11:37:37;99250.78;;;7.68;100.00
24762;BME280;12865;51.934;10.330;2023-02-03T11:40:30;99243.31;;;7.62;100.00
24762;BME280;12865;51.934;10.330;2023-02-03T11:43:18;99240.41;;;7.65;100.00
24762;BME280;12865;51.934;10.330;2023-02-03T11:46:04;99251.88;;;7.65;100.00
24762;BME280;12865;51.934;10.330;2023-02-03T12:01:11;99253.41;;;8.01;100.00
24762;BME280;12865;51.934;10.330;2023-02-03T12:10:27;99278.28;;;8.11;100.00
24762;BME280;12865;51.934;10.330;2023-02-03T12:19:03;99289.00;;;8.10;100.00
24762;BME280;12865;51.934;10.330;2023-02-03T12:22:01;99290.09;;;8.07;100.00
24762;BME280;12865;51.934;10.330;2023-02-03T12:27:50;99296.25;;;8.08;100.00
24762;BME280;12865;51.934;10.330;2023-02-03T12:30:42;99299.84;;;8.07;100.00
24762;BME280;12865;51.934;10.330;2023-02-03T12:33:38;99302.75;;;8.15;100.00
24762;BME280;12865;51.934;10.330;2023-02-03T12:36:47;99319.19;;;8.20;100.00
24762;BME280;12865;51.934;10.330;2023-02-03T12:39:43;99288.88;;;8.22;100.00
24762;BME280;12865;51.934;10.330;2023-02-03T12:42:36;99292.50;;;8.10;100.00
24762;BME280;12865;51.934;10.330;2023-02-03T12:45:29;99273.94;;;8.10;100.00
24762;BME280;12865;51.934;10.330;2023-02-03T12:48:20;99270.31;;;8.11;100.00
24762;BME280;12865;51.934;10.330;2023-02-03T12:51:13;99275.50;;;8.13;100.00
24762;BME280;12865;51.934;10.330;2023-02-03T12:54:04;99289.59;;;8.13;100.00
24762;BME280;12865;51.934;10.330;2023-02-03T12:56:54;99273.66;;;8.13;100.00
24762;BME280;12865;51.934;10.330;2023-02-03T12:59:52;99288.03;;;8.22;100.00
24762;BME280;12865;51.934;10.330;2023-02-03T13:03:13;99279.19;;;8.21;100.00
24762;BME280;12865;51.934;10.330;2023-02-03T13:06:30;99288.75;;;8.24;100.00
24762;BME280;12865;51.934;10.330;2023-02-03T13:12:30;99292.25;;;8.13;100.00
24762;BME280;12865;51.934;10.330;2023-02-03T13:15:23;99296.25;;;8.08;100.00
24762;BME280;12865;51.934;10.330;2023-02-03T13:21:10;99305.41;;;8.15;100.00
24762;BME280;12865;51.934;10.330;2023-02-03T13:23:56;99309.66;;;8.17;100.00
24762;BME280;12865;51.934;10.330;2023-02-03T13:27:06;99300.72;;;8.18;100.00
24762;BME280;12865;51.934;10.330;2023-02-03T13:39:49;99321.34;;;8.26;100.00
24762;BME280;12865;51.934;10.330;2023-02-03T13:42:41;99328.59;;;8.24;100.00
24762;BME280;12865;51.934;10.330;2023-02-03T13:45:32;99335.22;;;8.29;100.00
24762;BME280;12865;51.934;10.330;2023-02-03T13:48:25;99331.25;;;8.24;100.00
24762;BME280;12865;51.934;10.330;2023-02-03T13:54:06;99346.81;;;8.28;100.00
24762;BME280;12865;51.934;10.330;2023-02-03T13:57:01;99321.72;;;8.33;100.00
24762;BME280;12865;51.934;10.330;2023-02-03T13:59:47;99338.38;;;8.35;100.00
24762;BME280;12865;51.934;10.330;2023-02-03T14:02:50;99342.59;;;8.37;100.00
24762;BME280;12865;51.934;10.330;2023-02-03T14:17:44;99346.81;;;8.28;94.73
24762;BME280;12865;51.934;10.330;2023-02-03T14:23:18;99349.94;;;8.22;87.69
24762;BME280;12865;51.934;10.330;2023-02-03T14:26:05;99349.09;;;8.22;86.33
24762;BME280;12865;51.934;10.330;2023-02-03T14:28:59;99354.19;;;8.25;84.54
24762;BME280;12865;51.934;10.330;2023-02-03T14:31:55;99352.72;;;8.21;87.07
24762;BME280;12865;51.934;10.330;2023-02-03T14:34:42;99361.41;;;8.23;88.42
24762;BME280;12865;51.934;10.330;2023-02-03T14:37:29;99353.22;;;8.15;90.14
24762;BME280;12865;51.934;10.330;2023-02-03T14:40:22;99361.91;;;8.17;87.95
24762;BME280;12865;51.934;10.330;2023-02-03T14:49:40;99379.75;;;8.15;86.27
24762;BME280;12865;51.934;10.330;2023-02-03T14:58:28;99382.66;;;8.01;83.88
24762;BME280;12865;51.934;10.330;2023-02-03T15:04:27;99382.44;;;8.04;82.93
24762;BME280;12865;51.934;10.330;2023-02-03T15:07:53;99398.56;;;8.01;82.42
24762;BME280;12865;51.934;10.330;2023-02-03T15:13:27;99409.81;;;8.04;83.67
24762;BME280;12865;51.934;10.330;2023-02-03T15:16:16;99409.19;;;8.01;83.27
24762;BME280;12865;51.934;10.330;2023-02-03T15:19:02;99423.91;;;7.94;83.65
24762;BME280;12865;51.934;10.330;2023-02-03T15:21:53;99431.06;;;8.04;84.80
24762;BME280;12865;51.934;10.330;2023-02-03T15:24:39;99415.94;;;7.94;85.20
24762;BME280;12865;51.934;10.330;2023-02-03T15:27:29;99415.69;;;7.85;86.63
24762;BME280;12865;51.934;10.330;2023-02-03T15:30:20;99402.41;;;7.85;86.25
24762;BME280;12865;51.934;10.330;2023-02-03T15:33:17;99413.28;;;7.94;83.99
24762;BME280;12865;51.934;10.330;2023-02-03T15:36:11;99407.72;;;7.85;85.84
24762;BME280;12865;51.934;10.330;2023-02-03T15:39:32;99426.09;;;7.88;85.29
24762;BME280;12865;51.934;10.330;2023-02-03T15:42:40;99409.94;;;7.92;86.38
24762;BME280;12865;51.934;10.330;2023-02-03T15:48:36;99420.78;;;7.88;87.66
24762;BME280;12865;51.934;10.330;2023-02-03T15:51:33;99445.72;;;7.86;90.34
24762;BME280;12865;51.934;10.330;2023-02-03T15:54:31;99457.19;;;7.75;93.13
24762;BME280;12865;51.934;10.330;2023-02-03T15:57:30;99454.16;;;7.69;95.25
24762;BME280;12865;51.934;10.330;2023-02-03T16:00:39;99464.28;;;7.64;95.96
24762;BME280;12865;51.934;10.330;2023-02-03T16:03:44;99459.22;;;7.72;93.84
24762;BME280;12865;51.934;10.330;2023-02-03T16:06:36;99484.19;;;7.69;94.52
24762;BME280;12865;51.934;10.330;2023-02-03T16:09:41;99477.84;;;7.59;94.70
24762;BME280;12865;51.934;10.330;2023-02-03T16:12:29;99476.16;;;7.58;93.97
24762;BME280;12865;51.934;10.330;2023-02-03T16:15:23;99509.56;;;7.49;92.75
24762;BME280;12865;51.934;10.330;2023-02-03T16:18:15;99514.78;;;7.62;89.29
24762;BME280;12865;51.934;10.330;2023-02-03T16:21:03;99516.88;;;7.46;89.86
24762;BME280;12865;51.934;10.330;2023-02-03T16:23:49;99557.81;;;7.55;88.82
24762;BME280;12865;51.934;10.330;2023-02-03T16:26:35;99533.75;;;7.45;83.94
24762;BME280;12865;51.934;10.330;2023-02-03T16:29:28;99571.13;;;7.42;83.17
24762;BME280;12865;51.934;10.330;2023-02-03T16:32:32;99579.28;;;7.39;82.78
24762;BME280;12865;51.934;10.330;2023-02-03T16:35:36;99565.19;;;7.38;82.30
24762;BME280;12865;51.934;10.330;2023-02-03T16:38:47;99550.78;;;7.30;82.32
24762;BME280;12865;51.934;10.330;2023-02-03T16:41:54;99591.09;;;7.22;82.83
24762;BME280;12865;51.934;10.330;2023-02-03T16:45:00;99577.31;;;7.17;82.75
24762;BME280;12865;51.934;10.330;2023-02-03T16:48:05;99575.31;;;7.21;82.03
24762;BME280;12865;51.934;10.330;2023-02-03T16:51:13;99587.63;;;7.22;83.57
24762;BME280;12865;51.934;10.330;2023-02-03T16:54:00;99593.22;;;7.17;84.47
24762;BME280;12865;51.934;10.330;2023-02-03T16:56:45;99582.09;;;7.25;84.16
24762;BME280;12865;51.934;10.330;2023-02-03T16:59:31;99562.81;;;7.10;84.88